createdAt,value
2018-03-23T00:00:43.627Z,88.98
2018-03-23T00:03:46.960Z,88.98
2018-03-23T00:06:50.307Z,89.04
2018-03-23T00:09:53.666Z,88.77
2018-03-23T00:12:57.004Z,88.54
2018-03-23T00:16:00.310Z,88.42
2018-03-23T00:19:03.690Z,88.34
2018-03-23T00:22:07.787Z,88.40
2018-03-23T00:25:11.891Z,88.49
2018-03-23T00:28:15.240Z,88.21
2018-03-23T00:31:18.595Z,88.05
2018-03-23T00:34:21.928Z,88.34
2018-03-23T00:37:25.289Z,88.35
2018-03-23T00:40:28.609Z,88.41
2018-03-23T00:43:31.979Z,87.97
2018-03-23T00:46:35.335Z,88.11
2018-03-23T00:49:38.680Z,87.84
2018-03-23T00:52:42.023Z,87.86
2018-03-23T00:55:45.348Z,87.91
2018-03-23T00:58:48.694Z,87.95
2018-03-23T01:01:52.064Z,88.33
2018-03-23T01:04:55.431Z,88.24
2018-03-23T01:07:58.767Z,88.09
2018-03-23T01:11:02.889Z,88.33
2018-03-23T01:14:06.233Z,88.71
2018-03-23T01:17:09.588Z,88.75
2018-03-23T01:20:12.923Z,88.79
2018-03-23T01:23:16.285Z,88.54
2018-03-23T01:26:19.612Z,88.54
2018-03-23T01:29:22.939Z,88.43
2018-03-23T01:32:26.257Z,88.53
2018-03-23T01:35:30.394Z,88.57
2018-03-23T01:38:33.758Z,88.66
2018-03-23T01:41:37.215Z,88.82
2018-03-23T01:44:40.541Z,88.81
2018-03-23T01:47:43.941Z,88.95
2018-03-23T01:50:47.299Z,89.13
2018-03-23T01:53:50.632Z,89.21
2018-03-23T01:56:53.965Z,89.35
2018-03-23T01:59:57.336Z,89.40
2018-03-23T02:03:00.729Z,89.58
2018-03-23T02:06:04.063Z,89.70
2018-03-23T02:09:07.426Z,89.96
2018-03-23T02:12:10.758Z,90.48
2018-03-23T02:15:14.128Z,90.75
2018-03-23T02:18:17.439Z,91.06
2018-03-23T02:21:20.808Z,91.23
2018-03-23T02:24:24.188Z,91.40
2018-03-23T02:27:27.521Z,91.57
2018-03-23T02:30:30.889Z,91.67
2018-03-23T02:33:34.229Z,91.70
2018-03-23T02:36:37.586Z,91.72
2018-03-23T02:39:40.904Z,91.67
2018-03-23T02:42:44.268Z,91.71
2018-03-23T02:45:47.585Z,91.85
2018-03-23T02:48:50.908Z,91.90
2018-03-23T02:51:55.017Z,92.15
2018-03-23T02:54:58.408Z,92.32
2018-03-23T02:58:01.753Z,92.45
2018-03-23T03:01:05.089Z,92.65
2018-03-23T03:04:08.500Z,92.87
2018-03-23T03:07:11.838Z,92.79
2018-03-23T03:10:15.173Z,92.81
2018-03-23T03:13:18.516Z,92.98
2018-03-23T03:16:21.828Z,93.04
2018-03-23T03:19:25.183Z,92.24
2018-03-23T03:22:28.570Z,90.92
2018-03-23T03:40:12.434Z,90.52
2018-03-23T03:43:15.824Z,90.54
2018-03-23T03:46:19.208Z,90.72
2018-03-23T03:49:22.557Z,90.64
2018-03-23T03:52:25.939Z,90.65
2018-03-23T03:55:29.255Z,90.60
2018-03-23T03:58:41.560Z,90.38
2018-03-23T04:01:44.875Z,90.32
2018-03-23T04:04:48.232Z,89.74
2018-03-23T04:07:51.653Z,89.50
2018-03-23T04:10:54.987Z,89.51
2018-03-23T04:13:58.321Z,89.55
2018-03-23T04:17:01.659Z,89.89
2018-03-23T04:20:04.979Z,90.16
2018-03-23T04:23:08.303Z,90.42
2018-03-23T04:26:11.619Z,90.71
2018-03-23T04:29:14.960Z,90.83
2018-03-23T04:32:18.263Z,90.83
2018-03-23T04:35:21.596Z,90.68
2018-03-23T04:38:24.911Z,90.91
2018-03-23T04:41:30.495Z,91.17
2018-03-23T04:44:33.876Z,91.42
2018-03-23T04:47:37.223Z,91.52
2018-03-23T04:50:40.539Z,91.48
2018-03-23T04:53:43.859Z,91.75
2018-03-23T04:56:47.189Z,92.18
2018-03-23T04:59:50.499Z,92.54
2018-03-23T05:02:53.839Z,92.84
2018-03-23T05:05:57.147Z,92.71
2018-03-23T05:09:00.526Z,92.66
2018-03-23T05:12:03.863Z,92.64
2018-03-23T05:15:07.185Z,92.84
2018-03-23T05:18:10.528Z,92.97
2018-03-23T05:21:13.837Z,93.12
2018-03-23T05:24:17.195Z,93.12
2018-03-23T05:27:20.512Z,93.18
2018-03-23T05:30:23.851Z,93.13
2018-03-23T05:33:27.172Z,93.23
2018-03-23T05:36:30.503Z,93.44
2018-03-23T05:39:33.837Z,93.69
2018-03-23T05:42:37.184Z,93.81
2018-03-23T05:45:40.504Z,93.83
2018-03-23T05:48:43.823Z,93.79
2018-03-23T05:51:47.198Z,93.65
2018-03-23T05:54:50.476Z,93.63
2018-03-23T05:58:00.799Z,93.58
2018-03-23T06:01:04.137Z,93.48
2018-03-23T06:04:07.455Z,93.28
2018-03-23T06:07:10.778Z,93.23
2018-03-23T06:10:14.128Z,93.25
2018-03-23T06:13:17.467Z,93.24
2018-03-23T06:16:20.804Z,93.27
2018-03-23T06:19:24.113Z,93.21
2018-03-23T06:22:28.207Z,93.14
2018-03-23T06:25:31.520Z,93.05
2018-03-23T06:28:34.859Z,93.02
2018-03-23T06:31:38.223Z,92.95
2018-03-23T06:34:41.555Z,92.94
2018-03-23T06:37:45.657Z,92.96
2018-03-23T06:40:48.987Z,92.90
2018-03-23T06:43:52.313Z,92.79
2018-03-23T06:46:55.631Z,92.61
2018-03-23T06:49:58.967Z,92.51
2018-03-23T06:53:02.307Z,92.37
2018-03-23T06:56:05.628Z,92.27
2018-03-23T06:59:08.962Z,92.07
2018-03-23T07:02:12.282Z,91.68
2018-03-23T07:05:15.615Z,91.65
2018-03-23T07:08:18.972Z,91.66
2018-03-23T07:11:22.312Z,91.68
2018-03-23T07:14:25.931Z,91.63
2018-03-23T07:17:29.288Z,91.28
2018-03-23T07:20:32.612Z,90.82
2018-03-23T07:23:35.923Z,90.56
2018-03-23T07:26:39.283Z,90.38
2018-03-23T07:29:42.589Z,90.35
2018-03-23T07:32:46.683Z,90.29
2018-03-23T07:35:50.813Z,89.96
2018-03-23T07:38:55.537Z,90.08
2018-03-23T07:41:59.644Z,90.28
2018-03-23T07:45:02.947Z,90.37
2018-03-23T07:48:06.278Z,90.44
2018-03-23T07:51:09.597Z,90.54
2018-03-23T07:54:12.926Z,90.59
2018-03-23T07:57:16.227Z,90.46
2018-03-23T08:00:19.578Z,90.61
2018-03-23T08:03:22.911Z,90.77
2018-03-23T08:06:26.210Z,90.98
2018-03-23T08:09:29.550Z,91.14
2018-03-23T08:12:32.858Z,91.12
2018-03-23T08:15:36.181Z,91.03
2018-03-23T08:18:39.486Z,90.83
2018-03-23T08:21:42.805Z,90.77
2018-03-23T08:24:46.126Z,90.61
2018-03-23T08:27:49.430Z,90.29
2018-03-23T08:30:52.755Z,90.31
2018-03-23T08:33:56.058Z,90.42
2018-03-23T08:36:59.382Z,90.71
2018-03-23T08:40:02.679Z,90.62
2018-03-23T08:43:06.013Z,90.49
2018-03-23T08:46:09.316Z,90.26
2018-03-23T08:49:12.659Z,90.12
2018-03-23T08:52:15.966Z,90.19
2018-03-23T08:55:19.278Z,90.12
2018-03-23T08:58:23.342Z,90.17
2018-03-23T09:01:26.663Z,89.92
2018-03-23T09:04:29.990Z,89.82
2018-03-23T09:07:34.051Z,89.78
2018-03-23T09:10:37.391Z,89.38
2018-03-23T09:13:41.455Z,89.55
2018-03-23T09:16:44.796Z,89.43
2018-03-23T09:19:48.082Z,89.37
2018-03-23T09:22:51.423Z,89.69
2018-03-23T09:25:54.724Z,89.63
2018-03-23T09:28:58.059Z,89.69
2018-03-23T09:32:01.363Z,89.74
2018-03-23T09:35:04.687Z,89.93
2018-03-23T09:38:08.754Z,89.23
2018-03-23T09:41:12.074Z,89.19
2018-03-23T09:44:15.826Z,88.99
2018-03-23T09:47:19.138Z,88.44
2018-03-23T09:50:22.503Z,88.63
2018-03-23T09:53:25.798Z,88.63
2018-03-23T09:56:29.885Z,88.76
2018-03-23T09:59:33.183Z,88.92
2018-03-23T10:02:36.516Z,88.14
2018-03-23T10:05:39.864Z,88.69
2018-03-23T10:08:43.168Z,88.74
2018-03-23T10:11:46.478Z,88.22
2018-03-23T10:14:49.775Z,88.17
2018-03-23T10:17:53.100Z,88.70
2018-03-23T10:20:56.424Z,88.51
2018-03-23T10:23:59.738Z,88.79
2018-03-23T10:27:03.039Z,88.78
2018-03-23T10:30:06.359Z,88.39
2018-03-23T10:33:10.442Z,87.88
2018-03-23T10:36:13.770Z,87.96
2018-03-23T10:39:17.084Z,87.72
2018-03-23T10:42:21.158Z,87.17
2018-03-23T10:45:24.478Z,86.84
2018-03-23T10:48:27.790Z,86.80
2018-03-23T10:51:31.111Z,85.68
2018-03-23T10:54:34.406Z,85.21
2018-03-23T10:57:37.728Z,85.13
2018-03-23T11:00:46.547Z,85.04
2018-03-23T11:03:49.862Z,84.58
2018-03-23T11:06:53.198Z,84.97
2018-03-23T11:09:57.263Z,85.10
2018-03-23T11:13:00.598Z,85.27
2018-03-23T11:16:04.658Z,86.41
2018-03-23T11:19:07.991Z,86.37
2018-03-23T11:22:11.290Z,86.37
2018-03-23T11:25:14.606Z,85.87
2018-03-23T11:28:18.683Z,84.81
2018-03-23T11:31:22.006Z,85.93
2018-03-23T11:34:25.303Z,86.41
2018-03-23T11:37:28.620Z,85.75
2018-03-23T11:40:31.951Z,84.44
2018-03-23T11:43:35.276Z,83.25
2018-03-23T11:46:38.578Z,83.40
2018-03-23T11:49:41.886Z,83.97
2018-03-23T11:52:45.950Z,82.94
2018-03-23T11:55:49.270Z,82.87
2018-03-23T11:58:52.571Z,82.97
2018-03-23T12:01:55.887Z,83.05
2018-03-23T12:04:59.202Z,82.90
2018-03-23T12:08:03.266Z,83.56
2018-03-23T12:11:06.594Z,83.28
2018-03-23T12:14:09.891Z,82.25
2018-03-23T12:17:13.199Z,82.81
2018-03-23T12:20:17.259Z,82.62
2018-03-23T12:23:20.567Z,82.86
2018-03-23T12:26:23.862Z,82.80
2018-03-23T12:29:27.179Z,82.30
2018-03-23T12:32:30.495Z,82.33
2018-03-23T12:35:34.546Z,82.86
2018-03-23T12:38:37.851Z,83.09
2018-03-23T12:41:41.141Z,81.82
2018-03-23T12:44:44.457Z,81.34
2018-03-23T12:47:47.866Z,81.27
2018-03-23T12:50:51.203Z,80.97
2018-03-23T12:53:55.506Z,81.04
2018-03-23T12:56:59.574Z,80.92
2018-03-23T13:00:02.887Z,81.00
2018-03-23T13:03:06.411Z,80.78
2018-03-23T13:06:09.726Z,80.97
2018-03-23T13:09:13.798Z,80.39
2018-03-23T13:12:17.129Z,81.08
2018-03-23T13:15:21.191Z,81.44
2018-03-23T13:18:24.511Z,81.59
2018-03-23T13:21:27.842Z,81.78
2018-03-23T13:24:31.925Z,81.76
2018-03-23T13:27:35.242Z,81.85
2018-03-23T13:30:38.566Z,82.03
2018-03-23T13:33:41.862Z,82.14
2018-03-23T13:36:45.215Z,81.99
2018-03-23T13:39:48.514Z,81.99
2018-03-23T13:42:51.837Z,82.53
2018-03-23T13:45:55.899Z,82.78
2018-03-23T13:48:59.229Z,82.88
2018-03-23T13:52:02.529Z,83.16
2018-03-23T13:55:06.621Z,82.76
2018-03-23T13:58:10.334Z,82.76
2018-03-23T14:01:18.908Z,82.67
2018-03-23T14:04:22.243Z,82.98
2018-03-23T14:07:25.566Z,83.36
2018-03-23T14:10:28.910Z,82.86
2018-03-23T14:13:32.221Z,83.11
2018-03-23T14:16:35.530Z,83.14
2018-03-23T14:19:38.865Z,83.04
2018-03-23T14:22:42.966Z,83.21
2018-03-23T14:25:47.066Z,83.25
2018-03-23T14:28:50.463Z,83.11
2018-03-23T14:31:53.723Z,82.95
2018-03-23T14:34:57.054Z,82.76
2018-03-23T14:38:00.400Z,82.98
2018-03-23T14:41:03.726Z,83.39
2018-03-23T14:44:07.027Z,83.46
2018-03-23T14:47:10.347Z,83.64
2018-03-23T14:50:13.651Z,83.85
2018-03-23T14:53:16.977Z,83.96
2018-03-23T14:56:20.312Z,83.95
2018-03-23T14:59:23.618Z,83.70
2018-03-23T15:02:26.943Z,83.64
2018-03-23T15:05:30.239Z,83.23
2018-03-23T15:08:33.547Z,83.25
2018-03-23T15:11:37.608Z,83.32
2018-03-23T15:14:40.916Z,83.34
2018-03-23T15:17:44.233Z,83.36
2018-03-23T15:20:47.541Z,83.68
2018-03-23T15:23:51.619Z,83.69
2018-03-23T15:26:54.910Z,83.82
2018-03-23T15:29:58.224Z,83.70
2018-03-23T15:33:01.527Z,83.62
2018-03-23T15:36:04.846Z,83.81
2018-03-23T15:39:08.941Z,84.00
2018-03-23T15:42:12.254Z,83.99
2018-03-23T15:45:16.344Z,84.20
2018-03-23T15:48:19.653Z,84.30
2018-03-23T15:51:22.967Z,84.51
2018-03-23T15:54:27.032Z,84.67
2018-03-23T15:57:30.368Z,84.83
2018-03-23T16:00:34.435Z,85.02
2018-03-23T16:03:37.770Z,85.14
2018-03-23T16:06:41.075Z,85.19
2018-03-23T16:09:45.159Z,85.33
2018-03-23T16:12:48.454Z,85.54
2018-03-23T16:15:51.767Z,85.65
2018-03-23T16:18:55.090Z,85.26
2018-03-23T16:21:59.177Z,85.16
2018-03-23T16:25:02.480Z,85.33
2018-03-23T16:28:05.811Z,85.43
2018-03-23T16:31:09.124Z,85.31
2018-03-23T16:34:12.423Z,85.42
2018-03-23T16:37:15.751Z,85.69
2018-03-23T16:40:19.067Z,85.87
2018-03-23T16:43:22.386Z,86.00
2018-03-23T16:46:26.458Z,86.03
2018-03-23T16:49:29.778Z,86.22
2018-03-23T16:52:33.865Z,86.50
2018-03-23T16:55:37.168Z,86.82
2018-03-23T16:58:40.486Z,86.91
2018-03-23T17:01:43.783Z,87.35
2018-03-23T17:04:47.876Z,87.72
2018-03-23T17:07:51.178Z,88.12
2018-03-23T17:10:54.500Z,88.49
2018-03-23T17:13:58.567Z,88.68
2018-03-23T17:17:01.886Z,88.83
2018-03-23T17:20:05.220Z,88.95
2018-03-23T17:23:08.539Z,89.13
2018-03-23T17:26:11.863Z,89.17
2018-03-23T17:29:15.160Z,89.23
2018-03-23T17:32:18.474Z,89.39
2018-03-23T17:35:21.783Z,89.53
2018-03-23T17:38:25.863Z,89.68
2018-03-23T17:41:29.172Z,89.77
2018-03-23T17:44:32.486Z,89.75
2018-03-23T17:47:36.564Z,89.83
2018-03-23T17:50:39.867Z,89.94
2018-03-23T17:53:43.182Z,90.03
2018-03-23T17:56:46.487Z,90.13
2018-03-23T17:59:49.803Z,90.14
2018-03-23T18:02:53.112Z,90.23
2018-03-23T18:05:57.254Z,90.24
2018-03-23T18:09:00.563Z,90.38
2018-03-23T18:12:03.882Z,90.48
2018-03-23T18:15:07.191Z,90.59
2018-03-23T18:18:11.296Z,90.71
2018-03-23T18:21:14.634Z,90.72
2018-03-23T18:24:17.930Z,90.80
2018-03-23T18:27:21.262Z,90.88
2018-03-23T18:30:24.562Z,90.93
2018-03-23T18:33:27.879Z,91.00
2018-03-23T18:36:31.178Z,91.05
2018-03-23T18:39:34.507Z,91.15
2018-03-23T18:42:37.824Z,91.21
2018-03-23T18:45:41.147Z,91.22
2018-03-23T18:48:44.451Z,91.27
2018-03-23T18:51:47.764Z,91.31
2018-03-23T18:54:51.834Z,91.40
2018-03-23T18:57:55.150Z,91.50
2018-03-23T19:00:58.573Z,91.54
2018-03-23T19:04:01.871Z,91.60
2018-03-23T19:07:05.950Z,91.71
2018-03-23T19:10:09.255Z,91.80
2018-03-23T19:13:12.570Z,91.91
2018-03-23T19:16:15.866Z,91.98
2018-03-23T19:19:19.186Z,92.06
2018-03-23T19:22:23.261Z,92.17
2018-03-23T19:25:26.606Z,92.28
2018-03-23T19:28:29.922Z,92.39
2018-03-23T19:31:33.226Z,92.45
2018-03-23T19:34:36.543Z,92.54
2018-03-23T19:37:39.843Z,92.66
2018-03-23T19:40:43.159Z,92.72
2018-03-23T19:43:46.467Z,92.79
2018-03-23T19:46:50.574Z,92.83
2018-03-23T19:49:54.645Z,92.88
2018-03-23T19:52:57.964Z,93.01
2018-03-23T19:56:01.286Z,93.11
2018-03-23T19:59:04.591Z,93.17
2018-03-23T20:02:07.927Z,93.26
2018-03-23T20:05:11.223Z,93.30
2018-03-23T20:08:14.549Z,93.35
2018-03-23T20:11:17.876Z,93.42
2018-03-23T20:14:21.962Z,93.47
2018-03-23T20:17:30.771Z,93.50
2018-03-23T20:20:39.520Z,93.53
2018-03-23T20:23:42.843Z,93.51
2018-03-23T20:26:46.912Z,93.50
2018-03-23T20:29:50.243Z,93.48
2018-03-23T20:32:53.598Z,93.50
2018-03-23T20:35:57.027Z,93.54
2018-03-23T20:39:00.382Z,93.56
2018-03-23T20:42:03.698Z,93.58
2018-03-23T20:45:06.994Z,93.62
2018-03-23T20:48:10.315Z,93.65
2018-03-23T20:51:13.623Z,93.69
2018-03-23T20:54:17.715Z,93.64
2018-03-23T20:57:21.047Z,93.69
2018-03-23T21:00:24.371Z,93.73
2018-03-23T21:03:27.693Z,93.75
2018-03-23T21:06:31.016Z,93.79
2018-03-23T21:09:35.110Z,93.78
2018-03-23T21:12:38.415Z,93.81
2018-03-23T21:15:41.775Z,93.84
2018-03-23T21:18:45.104Z,93.85
2018-03-23T21:21:48.409Z,93.84
2018-03-23T21:24:51.732Z,93.85
2018-03-23T21:27:55.046Z,93.88
2018-03-23T21:30:58.382Z,93.86
2018-03-23T21:34:01.687Z,93.85
2018-03-23T21:37:05.011Z,93.86
2018-03-23T21:40:09.078Z,93.85
2018-03-23T21:43:12.407Z,93.86
2018-03-23T21:46:15.722Z,93.83
2018-03-23T21:49:19.816Z,93.81
2018-03-23T21:52:23.126Z,93.74
2018-03-23T21:55:27.223Z,93.75
2018-03-23T21:58:30.553Z,93.75
2018-03-23T22:01:33.904Z,93.75
2018-03-23T22:04:37.236Z,93.71
2018-03-23T22:07:40.566Z,93.73
2018-03-23T22:10:43.902Z,93.73
2018-03-23T22:13:47.234Z,93.75
2018-03-23T22:16:50.563Z,93.76
2018-03-23T22:19:53.875Z,93.74
2018-03-23T22:22:57.209Z,93.71
2018-03-23T22:26:01.299Z,93.73
2018-03-23T22:29:04.627Z,93.73
2018-03-23T22:32:08.716Z,93.75
2018-03-23T22:35:12.042Z,93.78
2018-03-23T22:38:16.113Z,93.79
2018-03-23T22:41:19.460Z,93.81
2018-03-23T22:44:22.799Z,93.81
2018-03-23T22:47:26.103Z,93.82
2018-03-23T22:50:29.435Z,93.83
2018-03-23T22:53:33.505Z,93.86
2018-03-23T22:56:36.830Z,93.86
2018-03-23T22:59:40.163Z,93.86
2018-03-23T23:02:43.490Z,93.85
2018-03-23T23:05:46.795Z,93.84
2018-03-23T23:08:50.132Z,93.82
2018-03-23T23:11:54.315Z,93.82
2018-03-23T23:14:57.649Z,93.83
2018-03-23T23:18:01.718Z,93.82
2018-03-23T23:21:05.057Z,93.81
2018-03-23T23:24:09.155Z,93.82
2018-03-23T23:27:12.483Z,93.82
2018-03-23T23:30:15.797Z,93.81
2018-03-23T23:33:19.135Z,93.81
2018-03-23T23:36:22.449Z,93.81
2018-03-23T23:39:26.539Z,93.81
2018-03-23T23:42:29.847Z,93.83
2018-03-23T23:45:33.189Z,93.84
2018-03-23T23:48:36.591Z,93.85
2018-03-23T23:51:39.912Z,93.85
2018-03-23T23:54:43.242Z,93.88
2018-03-23T23:57:46.568Z,93.90
